首页
METAR-TAF:

METAR-TAF

机场 :

Mecklenburg-Brunswick Regional Airport

South Hill, 弗吉尼亚州, 美国

纬度: 36-41-19N, 经度: 078-03-15W, 海拔: 135米

当前天气观测

该预报发布于28分钟前的14:15 UTC
风速6节,风向南转西南
温度 25°C
湿度 79%
气压 1017 hPa
能見度: 16.1公里
多云层高于1900英尺
阴天层高于2400英尺

METAR: KAVC 051415Z AUTO 21006KT 10SM BKN019 OVC024 25/21 A3004 RMK AO2 T02510210

时间: 10:43 (14:43 UTC)


TAF: 丢失

超过4000个机场的气象观测和天气预报(METAR&TAF报告)。

可查询的气象台以黄色和红色小点在地图上表示。

将鼠标移到小点上方,可查看气象台名称。

然后点击查看天气观测和预报。

如需切换地图:点击带黑十字的绿色按钮放大地图;点击带横线的绿色按钮缩小地图;或者点击绿色箭头查看邻近地区的地图。


METAR-TAF: